Time;durP1;ratioP1;P1;durP2;ratioP2;P2;SDS_P1;SDS_P2;PMS_P1;PMS_P2;Temp;Humidity;BMP_temperature;BMP_pressure;BME280_temperature;BME280_humidity;BME280_pressure;Samples;Min_cycle;Max_cycle;Signal;HPM_P1;HPM_P2
2022/03/19 00:00:51;;;;;;;15.73;5.10;;;4.40;99.90;;;;;;5097075;28;20629;-82
2022/03/19 00:03:35;;;;;;;13.88;3.40;;;4.30;99.90;;;;;;5097085;28;20096;-82
2022/03/19 00:06:19;;;;;;;;;;;4.40;99.90;;;;;;5110617;28;20062;-82
2022/03/19 00:09:05;;;;;;;;;;;4.20;99.90;;;;;;5112142;28;19918;-82
2022/03/19 00:11:49;;;;;;;11.55;2.88;;;4.20;99.90;;;;;;5111156;28;19957;-82
2022/03/19 00:14:34;;;;;;;9.70;3.03;;;4.10;99.90;;;;;;5082761;28;20059;-82
2022/03/19 00:17:18;;;;;;;;;;;4.20;99.90;;;;;;5113517;28;20419;-82
2022/03/19 00:20:03;;;;;;;12.65;3.20;;;4.20;99.90;;;;;;5100251;28;19918;-85
2022/03/19 00:22:48;;;;;;;15.55;3.58;;;4.20;99.90;;;;;;5114794;28;20050;-82
2022/03/19 00:25:32;;;;;;;19.40;3.55;;;4.20;99.90;;;;;;5100735;28;20041;-82
2022/03/19 00:28:18;;;;;;;12.27;2.90;;;4.20;99.90;;;;;;5115328;28;20115;-82
2022/03/19 00:31:03;;;;;;;19.40;3.00;;;4.20;99.90;;;;;;5114729;28;20123;-84
2022/03/19 00:33:48;;;;;;;15.82;4.10;;;4.30;99.90;;;;;;5114818;28;20108;-82
2022/03/19 00:36:32;;;;;;;16.80;3.78;;;4.30;99.90;;;;;;5114893;28;20153;-82
2022/03/19 00:39:16;;;;;;;;;;;4.20;99.90;;;;;;5115485;28;20047;-82
2022/03/19 00:42:00;;;;;;;17.33;3.97;;;4.30;99.90;;;;;;5114720;28;19933;-83
2022/03/19 00:44:44;;;;;;;16.25;3.22;;;4.20;99.90;;;;;;5114666;28;20046;-82
2022/03/19 00:47:28;;;;;;;;;;;4.20;99.90;;;;;;5115335;28;20406;-82
2022/03/19 00:50:12;;;;;;;13.45;4.22;;;4.10;99.90;;;;;;5113846;28;20390;-82
2022/03/19 00:52:56;;;;;;;13.55;2.92;;;4.10;99.90;;;;;;5115315;28;20042;-82
2022/03/19 00:55:40;;;;;;;;;;;4.00;99.90;;;;;;5114760;28;20112;-82
2022/03/19 00:58:25;;;;;;;13.68;5.05;;;4.00;99.90;;;;;;5099385;28;19919;-82
2022/03/19 01:01:09;;;;;;;16.35;3.67;;;4.30;99.90;;;;;;5113852;28;20098;-85
2022/03/19 01:03:54;;;;;;;18.65;3.47;;;4.30;99.90;;;;;;5099759;28;20051;-82
2022/03/19 01:06:38;;;;;;;16.27;4.82;;;4.70;99.90;;;;;;5115511;28;20054;-82
2022/03/19 01:09:22;;;;;;;10.18;3.20;;;4.00;99.90;;;;;;5113438;28;20095;-83
2022/03/19 01:12:07;;;;;;;14.88;2.95;;;4.80;99.90;;;;;;5099595;28;20074;-82
2022/03/19 01:14:51;;;;;;;15.85;3.03;;;3.90;99.90;;;;;;5099719;28;20092;-82
2022/03/19 01:17:37;;;;;;;13.75;3.25;;;3.90;99.90;;;;;;5113642;28;20514;-82
2022/03/19 01:20:21;;;;;;;14.23;3.28;;;4.30;99.90;;;;;;5113163;28;20039;-83
2022/03/19 01:23:05;;;;;;;16.20;3.80;;;3.90;99.90;;;;;;5113741;28;20136;-82
2022/03/19 01:25:49;;;;;;;;;;;3.90;99.90;;;;;;5114246;28;20062;-83
2022/03/19 01:28:34;;;;;;;19.83;3.20;;;3.90;99.90;;;;;;5113540;28;19964;-82
2022/03/19 01:31:21;;;;;;;15.95;3.40;;;4.00;99.90;;;;;;5084447;28;20042;-83
2022/03/19 01:34:05;;;;;;;10.70;2.67;;;3.80;99.90;;;;;;5113495;28;20081;-82
2022/03/19 01:36:49;;;;;;;;;;;3.80;99.90;;;;;;5114990;28;20043;-82
2022/03/19 01:39:33;;;;;;;16.13;2.42;;;3.80;99.90;;;;;;5098430;28;19934;-82
2022/03/19 01:42:30;;;;;;;15.75;3.42;;;3.80;99.90;;;;;;5113677;28;20132;-83
2022/03/19 01:45:20;;;;;;;18.63;3.50;;;3.80;99.90;;;;;;5113028;28;20495;-85
2022/03/19 01:48:04;;;;;;;12.52;3.20;;;3.80;99.90;;;;;;5113240;28;20065;-83
2022/03/19 01:50:48;;;;;;;18.08;5.65;;;3.80;99.90;;;;;;5113168;28;20058;-82
2022/03/19 01:53:33;;;;;;;18.92;3.40;;;3.80;99.90;;;;;;5098284;28;20092;-82
2022/03/19 01:56:17;;;;;;;12.02;3.08;;;3.90;99.90;;;;;;5098241;28;20142;-85
2022/03/19 01:59:03;;;;;;;15.48;3.83;;;3.80;99.90;;;;;;5113156;28;20449;-83
2022/03/19 02:01:49;;;;;;;19.77;3.53;;;4.00;99.90;;;;;;5113033;28;20074;-82
2022/03/19 02:04:34;;;;;;;14.98;3.20;;;3.90;99.90;;;;;;5112307;28;20104;-82
2022/03/19 02:07:19;;;;;;;16.58;3.80;;;3.90;99.90;;;;;;5113263;28;20104;-84
2022/03/19 02:10:03;;;;;;;16.92;4.72;;;4.70;99.90;;;;;;5098510;28;20039;-83
2022/03/19 02:12:49;;;;;;;19.77;3.60;;;3.80;99.90;;;;;;5098474;28;20089;-83
2022/03/19 02:15:33;;;;;;;18.10;4.05;;;4.00;99.90;;;;;;5113155;28;20495;-82
2022/03/19 02:18:17;;;;;;;18.95;4.60;;;3.80;99.90;;;;;;5098184;28;20046;-84
2022/03/19 02:21:02;;;;;;;15.93;3.95;;;3.80;99.90;;;;;;5112768;28;20061;-83
2022/03/19 02:27:00;;;;;;;19.10;4.45;;;3.80;99.90;;;;;;5113618;28;20088;-82
2022/03/19 02:29:45;;;;;;;16.52;3.17;;;3.80;99.90;;;;;;5112037;28;20042;-80
2022/03/19 02:32:29;;;;;;;;;;;3.80;99.90;;;;;;5111442;28;20043;-80
2022/03/19 02:35:13;;;;;;;16.70;4.70;;;3.80;99.90;;;;;;5113362;28;20420;-80
2022/03/19 02:37:57;;;;;;;;;;;3.70;99.90;;;;;;5112538;28;20046;-80
2022/03/19 02:40:41;;;;;;;13.50;3.42;;;3.70;99.90;;;;;;5110672;28;20542;-81
2022/03/19 02:43:25;;;;;;;;;;;3.70;99.90;;;;;;5111853;28;20065;-81
2022/03/19 02:46:10;;;;;;;15.02;4.05;;;3.70;99.90;;;;;;5113186;28;20369;-80
2022/03/19 02:48:54;;;;;;;11.63;3.90;;;3.70;99.90;;;;;;5097664;28;20080;-80
2022/03/19 02:51:40;;;;;;;15.45;3.53;;;3.70;99.90;;;;;;5096985;28;20043;-81
2022/03/19 02:54:27;;;;;;;16.15;5.20;;;3.70;99.90;;;;;;5111327;28;20044;-81
2022/03/19 02:57:11;;;;;;;18.38;4.63;;;3.70;99.90;;;;;;5111824;28;20053;-80
2022/03/19 02:59:55;;;;;;;20.73;4.68;;;3.90;99.90;;;;;;5111645;28;20085;-80
2022/03/19 03:02:39;;;;;;;18.20;5.22;;;3.70;99.90;;;;;;5096874;28;20050;-81
2022/03/19 03:05:23;;;;;;;15.45;4.50;;;3.80;99.90;;;;;;5112451;28;20400;-82
2022/03/19 03:08:07;;;;;;;;;;;3.70;99.90;;;;;;5112116;28;20038;-80
2022/03/19 03:10:52;;;;;;;16.65;4.90;;;3.70;99.90;;;;;;5111891;28;20386;-81
2022/03/19 03:13:36;;;;;;;16.00;3.95;;;3.60;99.90;;;;;;5111043;28;20043;-80
2022/03/19 03:16:20;;;;;;;;;;;3.70;99.90;;;;;;5097738;28;20555;-80
2022/03/19 03:19:07;;;;;;;13.57;3.97;;;3.60;99.90;;;;;;5112721;28;20010;-80
2022/03/19 03:21:51;;;;;;;16.63;4.88;;;3.60;99.90;;;;;;5111272;28;20118;-80
2022/03/19 03:24:35;;;;;;;;;;;3.60;99.90;;;;;;5111351;28;20173;-81
2022/03/19 03:27:19;;;;;;;12.32;3.60;;;3.80;99.90;;;;;;5111667;28;20473;-80
2022/03/19 03:30:04;;;;;;;13.93;4.20;;;3.70;99.90;;;;;;5097091;28;20114;-80
2022/03/19 03:32:49;;;;;;;21.95;4.88;;;3.60;99.90;;;;;;5096634;28;20093;-81
2022/03/19 03:35:33;;;;;;;14.57;5.00;;;3.50;99.90;;;;;;5110828;28;20119;-80
2022/03/19 03:38:17;;;;;;;;;;;3.50;99.90;;;;;;5097484;28;20153;-80
2022/03/19 03:41:01;;;;;;;14.48;4.40;;;3.40;99.90;;;;;;5111397;28;19923;-80
2022/03/19 03:43:46;;;;;;;18.17;4.60;;;3.40;99.90;;;;;;5110691;28;20050;-80
2022/03/19 03:46:30;;;;;;;19.73;4.60;;;3.40;99.90;;;;;;5110910;28;20039;-82
2022/03/19 03:49:14;;;;;;;;;;;3.40;99.90;;;;;;5111767;28;20039;-80
2022/03/19 03:51:58;;;;;;;18.23;5.05;;;3.30;99.90;;;;;;5113497;28;20056;-80
2022/03/19 03:54:42;;;;;;;;;;;3.20;99.90;;;;;;5115187;28;20043;-81
2022/03/19 03:57:27;;;;;;;19.67;4.75;;;3.20;99.90;;;;;;5116469;28;20396;-80
2022/03/19 04:00:11;;;;;;;15.18;4.93;;;3.10;99.90;;;;;;5115463;28;20084;-80
2022/03/19 04:02:55;;;;;;;15.13;5.85;;;3.10;99.90;;;;;;5115031;28;20051;-81
2022/03/19 04:05:40;;;;;;;16.55;4.78;;;3.00;99.90;;;;;;5114383;28;20474;-81
2022/03/19 04:08:24;;;;;;;18.20;5.05;;;3.10;99.90;;;;;;5086497;28;20047;-81
2022/03/19 04:11:08;;;;;;;;;;;3.00;99.90;;;;;;5116453;28;20092;-81
2022/03/19 04:13:52;;;;;;;20.15;4.72;;;3.00;99.90;;;;;;5115401;28;19938;-81
2022/03/19 04:16:37;;;;;;;18.83;5.20;;;3.00;99.90;;;;;;5099881;28;20043;-81
2022/03/19 04:19:21;;;;;;;17.40;4.88;;;2.90;99.90;;;;;;5100580;28;20042;-81
2022/03/19 04:22:05;;;;;;;;;;;3.50;99.90;;;;;;5096113;28;20394;-81
2022/03/19 04:24:50;;;;;;;17.02;5.40;;;3.40;99.90;;;;;;5113816;28;19926;-81
2022/03/19 04:27:34;;;;;;;;;;;2.90;99.90;;;;;;5115333;28;20058;-83
2022/03/19 04:30:20;;;;;;;20.95;5.13;;;2.90;99.90;;;;;;5114924;28;19914;-82
2022/03/19 04:33:04;;;;;;;17.90;5.75;;;2.90;99.90;;;;;;5115068;28;20046;-81
2022/03/19 04:38:51;;;;;;;14.57;6.43;;;2.90;99.90;;;;;;5114302;28;20129;-81
2022/03/19 04:41:36;;;;;;;;;;;2.90;99.90;;;;;;5115115;28;20039;-82
2022/03/19 04:44:21;;;;;;;15.27;5.25;;;3.40;99.90;;;;;;5112475;28;19938;-81
2022/03/19 04:47:05;;;;;;;19.20;5.00;;;3.30;99.90;;;;;;5099961;28;20399;-81
2022/03/19 04:49:49;;;;;;;19.83;5.20;;;2.90;99.90;;;;;;5114765;28;20043;-81
2022/03/19 04:52:34;;;;;;;;;;;2.90;99.90;;;;;;5114820;28;20084;-81
2022/03/19 04:55:18;;;;;;;20.42;5.30;;;3.00;99.90;;;;;;5114327;28;19915;-81
2022/03/19 04:58:04;;;;;;;19.95;6.70;;;2.90;99.90;;;;;;5113813;28;20140;-81
2022/03/19 05:00:49;;;;;;;18.95;6.40;;;2.90;99.90;;;;;;5113513;28;20054;-81
2022/03/19 05:03:33;;;;;;;15.20;5.50;;;2.90;99.90;;;;;;5114075;28;20050;-81
2022/03/19 05:06:18;;;;;;;20.75;5.50;;;3.50;99.90;;;;;;5114037;28;20058;-82
2022/03/19 05:12:07;;;;;;;20.90;5.17;;;2.90;99.90;;;;;;5113988;28;20088;-81
2022/03/19 05:14:51;;;;;;;15.65;5.25;;;2.90;99.90;;;;;;5098970;28;20293;-81
2022/03/19 05:17:35;;;;;;;18.80;6.15;;;2.90;99.90;;;;;;5143054;27;20092;-81
2022/03/19 05:20:19;;;;;;;16.45;5.50;;;2.90;99.90;;;;;;5099406;28;20135;-81
2022/03/19 05:23:06;;;;;;;21.90;6.15;;;2.90;99.90;;;;;;5098589;28;20412;-81
2022/03/19 05:25:52;;;;;;;17.63;5.53;;;3.00;99.90;;;;;;5114145;28;20074;-81
2022/03/19 05:28:36;;;;;;;19.65;5.63;;;3.10;99.90;;;;;;5114729;28;20038;-81
2022/03/19 05:31:20;;;;;;;15.23;5.10;;;3.00;99.90;;;;;;5084885;28;20084;-81
2022/03/19 05:37:09;;;;;;;24.40;6.63;;;3.10;99.90;;;;;;5113755;28;20007;-81
2022/03/19 05:39:55;;;;;;;9.93;5.05;;;3.30;99.90;;;;;;5113164;28;20046;-81
2022/03/19 05:42:39;;;;;;;14.68;5.80;;;3.00;99.90;;;;;;5113235;28;20039;-81
2022/03/19 05:45:23;;;;;;;;;;;3.10;99.90;;;;;;5114672;28;20060;-81
2022/03/19 05:48:07;;;;;;;17.98;7.07;;;3.10;99.90;;;;;;5113635;28;19920;-81
2022/03/19 05:50:53;;;;;;;18.45;5.88;;;3.20;99.90;;;;;;5083982;28;20443;-81
2022/03/19 05:53:37;;;;;;;17.17;5.68;;;3.10;99.90;;;;;;5113024;28;20221;-81
2022/03/19 05:56:24;;;;;;;22.60;5.50;;;3.10;99.90;;;;;;5098643;28;20159;-81
2022/03/19 05:59:08;;;;;;;20.13;5.97;;;3.10;99.90;;;;;;5112313;28;20524;-82
2022/03/19 06:01:53;;;;;;;16.77;5.72;;;3.20;99.90;;;;;;5098016;28;20187;-81
2022/03/19 06:04:37;;;;;;;;;;;3.10;99.90;;;;;;5114285;28;20441;-81
2022/03/19 06:07:21;;;;;;;22.95;6.93;;;3.20;99.90;;;;;;5112837;28;19969;-81
2022/03/19 06:10:06;;;;;;;;;;;3.10;99.90;;;;;;5113564;28;20918;-81
2022/03/19 06:12:50;;;;;;;18.65;5.72;;;3.20;99.90;;;;;;5113118;28;19972;-82
2022/03/19 06:15:34;;;;;;;21.13;5.35;;;3.30;99.90;;;;;;5112618;28;20034;-81
2022/03/19 06:18:19;;;;;;;24.70;6.28;;;3.20;99.90;;;;;;5098269;28;20464;-81
2022/03/19 06:21:04;;;;;;;15.55;6.28;;;3.30;99.90;;;;;;5083371;28;20061;-81
2022/03/19 06:23:49;;;;;;;23.15;6.93;;;3.30;99.90;;;;;;5113428;28;20043;-83
2022/03/19 06:26:34;;;;;;;22.07;6.80;;;3.30;99.90;;;;;;5113445;28;20104;-81
2022/03/19 06:29:18;;;;;;;14.82;6.70;;;3.40;99.90;;;;;;5083940;28;20096;-81
2022/03/19 06:32:03;;;;;;;16.15;6.07;;;3.40;99.90;;;;;;5083197;28;20105;-81
2022/03/19 06:34:48;;;;;;;15.63;6.00;;;3.50;99.90;;;;;;5112181;28;20038;-82
2022/03/19 06:37:33;;;;;;;18.27;6.80;;;4.10;99.90;;;;;;5083795;28;20037;-81
2022/03/19 06:40:17;;;;;;;18.83;5.90;;;3.60;99.90;;;;;;5113077;28;20046;-81
2022/03/19 06:43:02;;;;;;;21.40;7.45;;;3.60;99.90;;;;;;5077161;28;20133;-81
2022/03/19 06:45:46;;;;;;;;;;;3.90;99.90;;;;;;5092337;28;20441;-84
2022/03/19 06:48:30;;;;;;;18.42;6.45;;;3.70;99.90;;;;;;5111568;28;19960;-82
2022/03/19 06:51:14;;;;;;;;;;;3.80;99.90;;;;;;5096895;28;20040;-81
2022/03/19 06:53:58;;;;;;;18.98;6.05;;;3.80;99.90;;;;;;5097062;28;20385;-82
2022/03/19 06:56:42;;;;;;;16.23;6.53;;;3.90;99.90;;;;;;5112914;28;20109;-81
2022/03/19 06:59:27;;;;;;;17.95;7.38;;;4.00;99.90;;;;;;5095976;28;20086;-81
2022/03/19 07:02:11;;;;;;;;;;;4.00;99.90;;;;;;5119915;27;20043;-81
2022/03/19 07:04:55;;;;;;;15.75;6.28;;;4.10;99.90;;;;;;5119664;27;20280;-83
2022/03/19 07:07:39;;;;;;;16.15;6.20;;;4.20;99.90;;;;;;5090808;28;20036;-81
2022/03/19 07:10:23;;;;;;;;;;;4.30;99.90;;;;;;5077492;28;20039;-81
2022/03/19 07:13:07;;;;;;;12.43;4.60;;;4.40;99.90;;;;;;5091798;28;19960;-81
2022/03/19 07:15:51;;;;;;;22.38;6.30;;;4.50;99.90;;;;;;5092275;28;20067;-81
2022/03/19 07:18:36;;;;;;;21.25;6.32;;;4.70;99.90;;;;;;5077213;28;20442;-82
2022/03/19 07:21:21;;;;;;;16.88;6.30;;;4.80;99.90;;;;;;5062467;28;20054;-81
2022/03/19 07:24:06;;;;;;;23.08;7.13;;;5.00;99.90;;;;;;5076352;28;20565;-81
2022/03/19 07:26:50;;;;;;;17.92;6.00;;;5.10;99.90;;;;;;5091628;28;20043;-82
2022/03/19 07:29:34;;;;;;;;;;;5.50;99.90;;;;;;5091728;28;20043;-81
2022/03/19 07:32:19;;;;;;;15.38;6.32;;;5.60;99.90;;;;;;5090576;28;19915;-81
2022/03/19 07:35:04;;;;;;;15.88;5.95;;;6.70;99.90;;;;;;5092394;28;20047;-82
2022/03/19 07:37:48;;;;;;;14.38;5.82;;;7.70;99.90;;;;;;5137711;27;20077;-81
2022/03/19 07:43:36;;;;;;;18.35;6.95;;;9.70;99.90;;;;;;5111717;28;20043;-81
2022/03/19 07:46:25;;;;;;;18.98;6.05;;;10.20;99.90;;;;;;5095667;28;20094;-82
2022/03/19 07:49:11;;;;;;;15.77;5.90;;;10.80;99.90;;;;;;5104451;28;20101;-81
2022/03/19 07:51:55;;;;;;;17.30;6.30;;;11.20;99.90;;;;;;5115615;27;20056;-81
2022/03/19 07:54:40;;;;;;;16.38;5.75;;;11.50;99.90;;;;;;5096904;28;20078;-81
2022/03/19 07:57:24;;;;;;;18.77;5.70;;;12.00;99.90;;;;;;5090272;28;20043;-81
2022/03/19 08:00:09;;;;;;;15.65;5.97;;;12.30;99.90;;;;;;5119310;28;20103;-81
2022/03/19 08:02:53;;;;;;;16.00;5.65;;;12.20;99.20;;;;;;5091848;28;20043;-81
2022/03/19 08:05:41;;;;;;;17.58;6.10;;;12.10;99.50;;;;;;5105108;28;20058;-81
2022/03/19 08:08:25;;;;;;;13.60;5.57;;;12.00;98.90;;;;;;5091137;28;20096;-82
2022/03/19 08:11:10;;;;;;;13.75;5.22;;;11.80;99.20;;;;;;5104671;28;20078;-82
2022/03/19 08:13:54;;;;;;;24.30;5.93;;;11.30;99.90;;;;;;5119663;28;20079;-82
2022/03/19 08:16:38;;;;;;;;;;;10.70;99.90;;;;;;5120433;28;20039;-82
2022/03/19 08:19:25;;;;;;;16.17;4.93;;;10.20;99.90;;;;;;5091205;28;19919;-82
2022/03/19 08:22:09;;;;;;;21.08;5.38;;;9.80;99.90;;;;;;5119041;28;20537;-81
2022/03/19 08:24:53;;;;;;;;;;;9.50;99.90;;;;;;5092029;28;20055;-80
2022/03/19 08:27:38;;;;;;;13.43;4.38;;;9.50;99.90;;;;;;5076505;28;20349;-82
2022/03/19 08:30:22;;;;;;;;;;;9.70;99.90;;;;;;5119371;28;20486;-82
2022/03/19 08:33:06;;;;;;;19.02;5.93;;;10.10;99.90;;;;;;5090272;28;19919;-84
2022/03/19 08:35:51;;;;;;;15.32;4.45;;;10.50;99.90;;;;;;5092013;28;20491;-82
2022/03/19 08:41:37;;;;;;;11.73;4.25;;;11.20;99.90;;;;;;5095245;28;20043;-83
2022/03/19 08:44:22;;;;;;;16.50;3.72;;;11.00;99.90;;;;;;5081292;28;20096;-83
2022/03/19 08:47:06;;;;;;;17.30;6.07;;;10.70;99.90;;;;;;5095178;28;20039;-83
2022/03/19 08:49:51;;;;;;;14.85;5.18;;;10.60;99.90;;;;;;5114482;28;20035;-82
2022/03/19 08:52:36;;;;;;;13.52;3.45;;;10.90;99.90;;;;;;5114673;28;20050;-83
2022/03/19 08:55:20;;;;;;;9.85;3.20;;;10.80;99.90;;;;;;5113781;28;20498;-86
2022/03/19 08:58:04;;;;;;;;;;;10.90;99.90;;;;;;5114062;28;20043;-82
2022/03/19 09:00:49;;;;;;;11.13;3.13;;;10.80;99.90;;;;;;5114347;28;20283;-83
2022/03/19 09:03:34;;;;;;;15.73;4.07;;;10.80;99.90;;;;;;5114650;28;20096;-82
2022/03/19 09:06:19;;;;;;;15.75;3.47;;;10.90;99.90;;;;;;5113262;28;20062;-83
2022/03/19 09:09:03;;;;;;;15.13;3.90;;;10.90;99.50;;;;;;5114135;28;20395;-81
2022/03/19 09:11:48;;;;;;;14.15;4.00;;;10.90;99.60;;;;;;5113979;28;20466;-83
2022/03/19 09:14:32;;;;;;;10.77;3.72;;;10.80;98.20;;;;;;5113450;28;20641;-82
2022/03/19 09:17:17;;;;;;;10.40;3.72;;;10.60;99.30;;;;;;5114354;28;20494;-82
2022/03/19 09:20:02;;;;;;;17.25;4.40;;;10.50;98.50;;;;;;5114900;28;20046;-81
2022/03/19 09:22:46;;;;;;;13.57;3.72;;;10.40;99.30;;;;;;5100315;28;20452;-81
2022/03/19 09:25:30;;;;;;;;;;;10.40;98.50;;;;;;5114411;28;20046;-82
2022/03/19 09:28:15;;;;;;;13.20;4.30;;;10.70;96.30;;;;;;5115841;28;19999;-85
2022/03/19 09:30:59;;;;;;;18.80;3.40;;;11.00;97.80;;;;;;5114948;28;20506;-82
2022/03/19 09:33:45;;;;;;;11.15;2.78;;;11.10;96.00;;;;;;5100574;28;20050;-82
2022/03/19 09:36:30;;;;;;;13.68;3.35;;;11.40;96.20;;;;;;5098947;28;20108;-82
2022/03/19 09:39:14;;;;;;;;;;;11.50;94.70;;;;;;5114925;28;20104;-83
2022/03/19 09:41:59;;;;;;;12.23;3.22;;;11.50;94.10;;;;;;5113738;28;20416;-82
2022/03/19 09:44:43;;;;;;;13.40;2.90;;;11.50;95.50;;;;;;5099122;28;20046;-83
2022/03/19 09:47:28;;;;;;;12.27;3.20;;;11.50;95.30;;;;;;5113905;28;20042;-83
2022/03/19 09:50:12;;;;;;;11.50;3.17;;;11.40;95.20;;;;;;5114115;28;20404;-82
2022/03/19 09:52:58;;;;;;;11.13;3.72;;;11.30;94.90;;;;;;5113633;28;20047;-82
2022/03/19 09:55:42;;;;;;;10.57;2.60;;;11.20;93.00;;;;;;5113080;28;20042;-82
2022/03/19 09:58:26;;;;;;;14.18;3.40;;;11.10;92.70;;;;;;5112767;28;20038;-82
2022/03/19 10:01:10;;;;;;;10.93;3.35;;;11.20;92.90;;;;;;5114187;28;20119;-82
2022/03/19 10:03:59;;;;;;;;;;;11.30;92.60;;;;;;5113450;28;20051;-82
2022/03/19 10:10:06;;;;;;;10.85;2.97;;;11.30;93.20;;;;;;5066654;28;20544;-82
2022/03/19 10:12:50;;;;;;;7.93;2.60;;;11.40;92.30;;;;;;5112883;28;20042;-82
2022/03/19 10:15:43;;;;;;;7.18;2.40;;;11.50;92.30;;;;;;5112196;28;20084;-82
2022/03/19 10:18:29;;;;;;;9.93;2.75;;;11.60;92.30;;;;;;5097842;28;20472;-82
2022/03/19 10:21:14;;;;;;;12.98;2.50;;;11.80;91.50;;;;;;5112726;28;20516;-82
2022/03/19 10:23:59;;;;;;;6.78;2.33;;;11.80;90.10;;;;;;5112589;28;20181;-82
2022/03/19 10:26:48;;;;;;;10.25;2.45;;;11.90;89.50;;;;;;5111989;28;20390;-82
2022/03/19 10:29:35;;;;;;;12.00;2.95;;;12.00;84.70;;;;;;5112918;28;20486;-82
2022/03/19 10:32:20;;;;;;;14.88;2.92;;;11.90;86.50;;;;;;5112312;28;20035;-82
2022/03/19 10:35:04;;;;;;;11.20;3.67;;;12.00;88.60;;;;;;5112406;28;20089;-81
2022/03/19 10:37:48;;;;;;;11.05;3.00;;;12.00;86.60;;;;;;5109491;28;20100;-83
2022/03/19 10:40:43;;;;;;;8.68;2.67;;;12.10;88.70;;;;;;5097887;28;20035;-82
2022/03/19 10:43:27;;;;;;;8.85;2.90;;;12.20;88.20;;;;;;5103156;28;20100;-83
2022/03/19 10:46:12;;;;;;;9.48;3.17;;;12.30;88.40;;;;;;5106861;28;20057;-82
2022/03/19 10:48:59;;;;;;;7.78;3.08;;;12.40;86.60;;;;;;5111389;28;20074;-82
2022/03/19 10:51:45;;;;;;;11.43;2.50;;;12.50;84.80;;;;;;5111979;28;20071;-81
2022/03/19 10:54:30;;;;;;;8.98;2.75;;;12.50;85.20;;;;;;5110779;28;20034;-83
2022/03/19 10:57:14;;;;;;;7.30;2.60;;;12.70;85.10;;;;;;5097249;28;20061;-81
2022/03/19 10:59:59;;;;;;;15.90;3.08;;;12.80;83.40;;;;;;5097655;28;20039;-82
2022/03/19 11:02:46;;;;;;;12.32;3.50;;;12.70;81.50;;;;;;5110928;28;20039;-82
2022/03/19 11:05:34;;;;;;;9.25;2.58;;;12.80;81.80;;;;;;5112337;28;20062;-82
2022/03/19 11:08:20;;;;;;;8.70;3.30;;;12.80;80.00;;;;;;5112830;28;20043;-81
2022/03/19 11:11:38;;;;;;;9.32;2.60;;;12.80;80.10;;;;;;5112735;28;20034;-81
2022/03/19 11:14:28;;;;;;;7.38;2.58;;;12.90;75.00;;;;;;5106831;28;20057;-82
2022/03/19 11:17:24;;;;;;;11.85;3.53;;;12.90;79.60;;;;;;5112797;28;20058;-82
2022/03/19 11:20:11;;;;;;;7.30;2.47;;;13.10;72.60;;;;;;5111821;28;20123;-81
2022/03/19 11:22:55;;;;;;;7.47;2.10;;;13.10;74.60;;;;;;5083304;28;20434;-82
2022/03/19 11:25:47;;;;;;;9.82;2.28;;;13.10;73.30;;;;;;5111907;28;20498;-82
2022/03/19 11:28:34;;;;;;;9.60;2.83;;;13.20;75.10;;;;;;5112179;28;20085;-82
2022/03/19 11:31:29;;;;;;;11.27;3.20;;;13.20;74.10;;;;;;5111630;28;20074;-82
2022/03/19 11:34:16;;;;;;;7.07;2.65;;;13.30;72.90;;;;;;5111503;28;20169;-82
2022/03/19 11:37:02;;;;;;;6.40;2.10;;;13.20;73.50;;;;;;5112548;28;20601;-82
2022/03/19 11:40:26;;;;;;;6.30;2.47;;;13.30;73.90;;;;;;5140099;27;20031;-81
2022/03/19 11:43:10;;;;;;;8.30;2.60;;;13.40;70.90;;;;;;5111518;28;20089;-81
2022/03/19 11:45:57;;;;;;;7.47;2.35;;;13.40;71.00;;;;;;5096598;28;20404;-82
2022/03/19 11:48:46;;;;;;;8.10;2.08;;;13.50;71.50;;;;;;5112147;28;20030;-82
2022/03/19 11:51:36;;;;;;;7.82;2.30;;;13.40;70.20;;;;;;5111376;28;20539;-82
2022/03/19 11:54:20;;;;;;;6.00;2.20;;;13.50;69.20;;;;;;5112422;28;20498;-82
2022/03/19 11:57:07;;;;;;;6.22;1.90;;;13.40;69.40;;;;;;5111283;28;20035;-81
2022/03/19 11:59:58;;;;;;;6.05;1.77;;;13.50;69.10;;;;;;5110675;28;20096;-83
2022/03/19 12:03:09;;;;;;;7.10;2.00;;;13.40;66.60;;;;;;5111565;28;20077;-82
2022/03/19 12:05:53;;;;;;;7.90;1.98;;;13.40;63.30;;;;;;5111787;28;20144;-81
2022/03/19 12:08:48;;;;;;;6.03;1.77;;;13.20;64.00;;;;;;5096427;28;20051;-82
2022/03/19 12:11:33;;;;;;;6.03;1.73;;;13.10;64.70;;;;;;5112327;28;20038;-81
2022/03/19 12:14:22;;;;;;;4.03;1.65;;;13.30;65.70;;;;;;5115458;28;20099;-81
2022/03/19 12:17:29;;;;;;;5.53;1.63;;;13.40;65.60;;;;;;5114389;28;20057;-83
2022/03/19 12:20:13;;;;;;;4.50;1.67;;;13.70;64.60;;;;;;5114781;28;20042;-80
2022/03/19 12:22:57;;;;;;;5.22;1.80;;;13.70;62.40;;;;;;5084826;28;20090;-81
2022/03/19 12:25:45;;;;;;;5.05;1.45;;;13.50;62.00;;;;;;5098425;28;20034;-81
2022/03/19 12:28:31;;;;;;;5.97;1.73;;;13.50;63.20;;;;;;5113420;28;20077;-81
2022/03/19 12:31:16;;;;;;;4.20;1.40;;;13.50;61.40;;;;;;5114668;28;20066;-82
2022/03/19 12:34:00;;;;;;;;;;;13.70;63.30;;;;;;5115540;28;20042;-81
2022/03/19 12:36:45;;;;;;;3.65;1.50;;;13.80;60.20;;;;;;5115242;28;19914;-82
2022/03/19 12:39:30;;;;;;;4.45;1.50;;;13.80;62.00;;;;;;5115753;28;20514;-83
2022/03/19 12:42:31;;;;;;;5.25;1.40;;;13.70;61.20;;;;;;5100311;28;20039;-82
2022/03/19 12:45:15;;;;;;;6.97;2.10;;;13.70;60.90;;;;;;5115766;28;20456;-83
2022/03/19 12:48:00;;;;;;;3.42;1.77;;;13.80;62.00;;;;;;5099543;28;20098;-83
2022/03/19 12:50:53;;;;;;;3.85;1.60;;;13.80;61.90;;;;;;5114876;28;20092;-83
2022/03/19 12:53:40;;;;;;;6.75;2.20;;;13.90;62.30;;;;;;5114331;28;20097;-82
2022/03/19 12:56:28;;;;;;;6.38;1.80;;;13.70;62.60;;;;;;5115315;28;20548;-81
2022/03/19 12:59:18;;;;;;;5.45;1.90;;;14.10;61.90;;;;;;5114221;28;20042;-81
2022/03/19 13:02:03;;;;;;;4.38;1.70;;;14.20;61.70;;;;;;5113648;28;20092;-81
2022/03/19 13:04:48;;;;;;;6.40;1.75;;;14.20;62.40;;;;;;5113540;28;20568;-83
2022/03/19 13:07:32;;;;;;;8.05;2.03;;;14.10;60.90;;;;;;5115286;28;20050;-81
2022/03/19 13:10:17;;;;;;;4.72;1.63;;;14.10;61.00;;;;;;5085428;28;20061;-81
2022/03/19 13:13:08;;;;;;;4.10;1.50;;;14.20;61.20;;;;;;5113307;28;20443;-81
2022/03/19 13:15:56;;;;;;;5.50;1.67;;;14.20;60.70;;;;;;5114306;28;20407;-81
2022/03/19 13:18:42;;;;;;;7.95;1.80;;;14.20;61.00;;;;;;5114027;28;20039;-81
2022/03/19 13:21:28;;;;;;;5.40;1.80;;;14.10;60.90;;;;;;5114870;28;20545;-81
2022/03/19 13:24:13;;;;;;;7.15;2.25;;;14.10;61.00;;;;;;5098844;28;20043;-81
2022/03/19 13:26:57;;;;;;;4.47;1.67;;;14.10;61.50;;;;;;5114477;28;20078;-81
2022/03/19 13:29:41;;;;;;;6.43;1.77;;;14.10;60.50;;;;;;5099647;28;20042;-81
2022/03/19 13:32:26;;;;;;;6.85;1.85;;;14.00;60.70;;;;;;5114871;28;20086;-80
2022/03/19 13:35:10;;;;;;;10.18;1.90;;;13.90;61.30;;;;;;5114817;28;20047;-81
2022/03/19 13:37:55;;;;;;;5.03;2.08;;;13.90;61.90;;;;;;5113198;28;20506;-81
2022/03/19 13:40:39;;;;;;;;;;;14.00;61.90;;;;;;5115131;28;20503;-81
2022/03/19 13:43:36;;;;;;;4.15;1.98;;;14.10;59.50;;;;;;5114516;28;19922;-81
2022/03/19 13:46:22;;;;;;;7.95;2.30;;;14.00;61.10;;;;;;5113511;28;20091;-81
2022/03/19 13:49:17;;;;;;;5.88;2.08;;;14.10;61.60;;;;;;5113808;28;20070;-82
2022/03/19 13:52:01;;;;;;;6.80;1.83;;;14.20;59.60;;;;;;5113795;28;20084;-82
2022/03/19 13:54:46;;;;;;;4.93;1.77;;;14.10;61.00;;;;;;5113286;28;20501;-82
2022/03/19 13:57:43;;;;;;;5.20;1.73;;;14.20;60.20;;;;;;5114419;28;20043;-81
2022/03/19 14:00:33;;;;;;;7.55;1.75;;;14.00;58.10;;;;;;5113124;28;20039;-81
2022/03/19 14:03:24;;;;;;;5.53;1.80;;;13.90;58.30;;;;;;5114081;28;20100;-80
2022/03/19 14:06:09;;;;;;;6.47;2.00;;;14.00;59.10;;;;;;5112402;28;20058;-80
2022/03/19 14:08:58;;;;;;;6.18;1.90;;;13.80;58.60;;;;;;5113690;28;20035;-81
2022/03/19 14:11:47;;;;;;;6.15;1.85;;;13.70;58.30;;;;;;5113141;28;20058;-81
2022/03/19 14:14:37;;;;;;;5.80;1.88;;;13.60;59.30;;;;;;5114081;28;20104;-81
2022/03/19 14:17:21;;;;;;;6.53;2.50;;;13.40;57.40;;;;;;5113086;28;20502;-81
2022/03/19 14:20:06;;;;;;;9.23;2.42;;;13.40;59.50;;;;;;5113375;28;20398;-80
2022/03/19 14:22:51;;;;;;;4.40;1.80;;;13.40;59.90;;;;;;5113634;28;20441;-82
2022/03/19 14:25:36;;;;;;;5.70;1.75;;;13.50;59.60;;;;;;5112928;28;20137;-81
2022/03/19 14:28:22;;;;;;;3.78;1.55;;;13.60;59.70;;;;;;5112663;28;20043;-81
2022/03/19 14:31:06;;;;;;;6.97;2.10;;;13.70;59.50;;;;;;5113184;28;20038;-81
2022/03/19 14:33:51;;;;;;;7.50;1.80;;;13.50;58.00;;;;;;5114121;28;20047;-80
2022/03/19 14:36:35;;;;;;;6.07;1.63;;;13.50;58.50;;;;;;5112641;28;20544;-79
2022/03/19 14:39:22;;;;;;;3.75;1.50;;;13.40;58.90;;;;;;5113860;28;20116;-83
2022/03/19 14:42:06;;;;;;;4.57;1.60;;;13.40;58.40;;;;;;5112759;28;20100;-81
2022/03/19 14:44:53;;;;;;;7.00;2.13;;;13.30;58.20;;;;;;5098008;28;20103;-80
2022/03/19 14:47:38;;;;;;;4.22;1.60;;;13.20;59.40;;;;;;5113275;28;20041;-81
2022/03/19 14:50:22;;;;;;;4.80;1.70;;;13.20;61.00;;;;;;5097803;28;20070;-81
2022/03/19 14:53:07;;;;;;;3.75;1.63;;;13.20;61.20;;;;;;5111902;28;20047;-82